sensor_id;sensor_type;location;lat;lon;timestamp;pressure;altitude;pressure_sealevel;temperature;humidity
29239;BME280;16267;48.194;11.546;2023-04-24T00:00:11;95094.31;;;12.09;95.86
29239;BME280;16267;48.194;11.546;2023-04-24T00:02:42;95091.31;;;12.07;96.50
29239;BME280;16267;48.194;11.546;2023-04-24T00:05:10;95094.63;;;12.11;96.48
29239;BME280;16267;48.194;11.546;2023-04-24T00:07:37;95085.25;;;12.02;95.90
29239;BME280;16267;48.194;11.546;2023-04-24T00:10:03;95082.78;;;12.08;96.21
29239;BME280;16267;48.194;11.546;2023-04-24T00:12:29;95082.91;;;12.04;96.39
29239;BME280;16267;48.194;11.546;2023-04-24T00:14:55;95082.78;;;12.08;95.53
29239;BME280;16267;48.194;11.546;2023-04-24T00:17:20;95076.25;;;12.09;95.36
29239;BME280;16267;48.194;11.546;2023-04-24T00:19:48;95074.63;;;12.12;94.75
29239;BME280;16267;48.194;11.546;2023-04-24T00:22:14;95080.31;;;12.14;94.18
29239;BME280;16267;48.194;11.546;2023-04-24T00:24:40;95081.09;;;12.14;94.31
29239;BME280;16267;48.194;11.546;2023-04-24T00:27:17;95077.63;;;12.14;93.89
29239;BME280;16267;48.194;11.546;2023-04-24T00:29:43;95084.53;;;12.15;93.37
29239;BME280;16267;48.194;11.546;2023-04-24T00:32:08;95079.88;;;12.15;93.21
29239;BME280;16267;48.194;11.546;2023-04-24T00:34:34;95079.47;;;12.17;92.94
29239;BME280;16267;48.194;11.546;2023-04-24T00:37:00;95073.31;;;12.16;92.68
29239;BME280;16267;48.194;11.546;2023-04-24T00:39:26;95081.94;;;12.11;92.71
29239;BME280;16267;48.194;11.546;2023-04-24T00:41:52;95078.47;;;12.11;92.85
29239;BME280;16267;48.194;11.546;2023-04-24T00:44:20;95077.72;;;12.10;93.18
29239;BME280;16267;48.194;11.546;2023-04-24T00:46:52;95085.06;;;12.10;93.27
29239;BME280;16267;48.194;11.546;2023-04-24T00:49:23;95076.66;;;12.08;92.64
29239;BME280;16267;48.194;11.546;2023-04-24T00:51:49;95072.75;;;11.83;93.31
29239;BME280;16267;48.194;11.546;2023-04-24T00:54:17;95082.34;;;11.84;93.60
29239;BME280;16267;48.194;11.546;2023-04-24T00:56:44;95074.28;;;11.84;93.69
29239;BME280;16267;48.194;11.546;2023-04-24T00:59:11;95075.78;;;11.72;93.41
29239;BME280;16267;48.194;11.546;2023-04-24T01:01:38;95076.75;;;11.78;94.45
29239;BME280;16267;48.194;11.546;2023-04-24T01:04:08;95079.44;;;11.78;93.62
29239;BME280;16267;48.194;11.546;2023-04-24T01:06:37;95075.56;;;11.79;93.42
29239;BME280;16267;48.194;11.546;2023-04-24T01:09:04;95075.78;;;11.72;92.30
29239;BME280;16267;48.194;11.546;2023-04-24T01:11:30;95076.09;;;11.61;93.13
29239;BME280;16267;48.194;11.546;2023-04-24T01:13:57;95073.06;;;11.59;92.82
29239;BME280;16267;48.194;11.546;2023-04-24T01:16:24;95074.56;;;11.60;93.96
29239;BME280;16267;48.194;11.546;2023-04-24T01:18:50;95071.88;;;11.60;93.42
29239;BME280;16267;48.194;11.546;2023-04-24T01:21:17;95075.31;;;11.61;93.75
29239;BME280;16267;48.194;11.546;2023-04-24T01:23:44;95068.78;;;11.62;92.90
29239;BME280;16267;48.194;11.546;2023-04-24T01:26:12;95064.03;;;11.53;92.67
29239;BME280;16267;48.194;11.546;2023-04-24T01:28:38;95061.03;;;11.51;92.82
29239;BME280;16267;48.194;11.546;2023-04-24T01:31:04;95060.47;;;11.44;93.07
29239;BME280;16267;48.194;11.546;2023-04-24T01:33:30;95065.50;;;11.42;92.26
29239;BME280;16267;48.194;11.546;2023-04-24T01:35:56;95060.25;;;11.38;91.33
29239;BME280;16267;48.194;11.546;2023-04-24T01:38:23;95051.78;;;11.39;91.38
29239;BME280;16267;48.194;11.546;2023-04-24T01:40:49;95054.88;;;11.38;91.68
29239;BME280;16267;48.194;11.546;2023-04-24T01:43:16;95046.91;;;11.34;92.00
29239;BME280;16267;48.194;11.546;2023-04-24T01:45:43;95053.69;;;11.26;91.79
29239;BME280;16267;48.194;11.546;2023-04-24T01:48:09;95052.06;;;11.29;91.52
29239;BME280;16267;48.194;11.546;2023-04-24T01:50:35;95065.38;;;11.20;91.77
29239;BME280;16267;48.194;11.546;2023-04-24T01:53:05;95065.22;;;11.10;91.79
29239;BME280;16267;48.194;11.546;2023-04-24T01:55:31;95061.38;;;11.11;92.32
29239;BME280;16267;48.194;11.546;2023-04-24T01:57:57;95057.56;;;10.96;92.35
29239;BME280;16267;48.194;11.546;2023-04-24T02:00:25;95057.47;;;11.00;93.39
29239;BME280;16267;48.194;11.546;2023-04-24T02:02:51;95056.28;;;11.01;93.30
29239;BME280;16267;48.194;11.546;2023-04-24T02:05:16;95055.72;;;10.93;93.41
29239;BME280;16267;48.194;11.546;2023-04-24T02:07:42;95061.84;;;10.93;93.17
29239;BME280;16267;48.194;11.546;2023-04-24T02:10:09;95044.53;;;10.94;93.38
29239;BME280;16267;48.194;11.546;2023-04-24T02:12:35;95061.75;;;10.97;93.45
29239;BME280;16267;48.194;11.546;2023-04-24T02:15:01;95057.56;;;10.96;93.08
29239;BME280;16267;48.194;11.546;2023-04-24T02:17:26;95064.44;;;10.97;92.56
29239;BME280;16267;48.194;11.546;2023-04-24T02:19:52;95056.69;;;10.86;92.64
29239;BME280;16267;48.194;11.546;2023-04-24T02:22:18;95061.50;;;10.91;93.57
29239;BME280;16267;48.194;11.546;2023-04-24T02:24:43;95057.97;;;10.94;93.42
29239;BME280;16267;48.194;11.546;2023-04-24T02:27:09;95057.31;;;10.90;92.70
29239;BME280;16267;48.194;11.546;2023-04-24T02:29:35;95046.69;;;10.87;93.29
29239;BME280;16267;48.194;11.546;2023-04-24T02:32:01;95051.03;;;10.81;92.48
29239;BME280;16267;48.194;11.546;2023-04-24T02:34:27;95052.97;;;10.80;93.32
29239;BME280;16267;48.194;11.546;2023-04-24T02:36:52;95055.59;;;10.84;93.46
29239;BME280;16267;48.194;11.546;2023-04-24T02:39:19;95050.53;;;10.86;93.12
29239;BME280;16267;48.194;11.546;2023-04-24T02:41:46;95058.28;;;10.84;92.79
29239;BME280;16267;48.194;11.546;2023-04-24T02:44:11;95051.81;;;10.81;92.68
29239;BME280;16267;48.194;11.546;2023-04-24T02:46:37;95055.66;;;10.80;93.75
29239;BME280;16267;48.194;11.546;2023-04-24T02:49:03;95054.91;;;10.80;94.16
29239;BME280;16267;48.194;11.546;2023-04-24T02:51:29;95055.66;;;10.80;93.93
29239;BME280;16267;48.194;11.546;2023-04-24T02:53:55;95059.53;;;10.79;93.59
29239;BME280;16267;48.194;11.546;2023-04-24T02:56:21;95055.34;;;10.78;93.67
29239;BME280;16267;48.194;11.546;2023-04-24T02:58:46;95058.22;;;10.71;93.83
29239;BME280;16267;48.194;11.546;2023-04-24T03:01:12;95058.56;;;10.73;94.68
29239;BME280;16267;48.194;11.546;2023-04-24T03:03:38;95053.69;;;10.68;95.28
29239;BME280;16267;48.194;11.546;2023-04-24T03:06:05;95058.81;;;10.62;94.78
29239;BME280;16267;48.194;11.546;2023-04-24T03:08:32;95055.69;;;10.64;95.60
29239;BME280;16267;48.194;11.546;2023-04-24T03:10:58;95052.94;;;10.67;96.06
29239;BME280;16267;48.194;11.546;2023-04-24T03:13:27;95046.06;;;10.66;95.10
29239;BME280;16267;48.194;11.546;2023-04-24T03:15:52;95051.41;;;10.66;95.88
29239;BME280;16267;48.194;11.546;2023-04-24T03:18:19;95047.00;;;10.60;96.14
29239;BME280;16267;48.194;11.546;2023-04-24T03:20:48;95057.22;;;10.65;96.30
29239;BME280;16267;48.194;11.546;2023-04-24T03:23:14;95054.38;;;10.56;95.81
29239;BME280;16267;48.194;11.546;2023-04-24T03:25:40;95056.06;;;10.49;97.80
29239;BME280;16267;48.194;11.546;2023-04-24T03:28:08;95054.72;;;10.41;97.78
29239;BME280;16267;48.194;11.546;2023-04-24T03:30:34;95063.03;;;10.31;98.76
29239;BME280;16267;48.194;11.546;2023-04-24T03:33:00;95061.88;;;10.32;99.69
29239;BME280;16267;48.194;11.546;2023-04-24T03:35:28;95061.59;;;10.26;100.00
29239;BME280;16267;48.194;11.546;2023-04-24T03:37:54;95061.44;;;10.33;100.00
29239;BME280;16267;48.194;11.546;2023-04-24T03:40:20;95066.97;;;10.26;100.00
29239;BME280;16267;48.194;11.546;2023-04-24T03:42:46;95062.00;;;10.24;100.00
29239;BME280;16267;48.194;11.546;2023-04-24T03:45:11;95068.81;;;10.13;100.00
29239;BME280;16267;48.194;11.546;2023-04-24T03:47:37;95062.69;;;10.12;100.00
29239;BME280;16267;48.194;11.546;2023-04-24T03:50:03;95062.69;;;10.12;100.00
29239;BME280;16267;48.194;11.546;2023-04-24T03:52:29;95063.03;;;10.14;100.00
29239;BME280;16267;48.194;11.546;2023-04-24T03:54:55;95056.84;;;10.17;100.00
29239;BME280;16267;48.194;11.546;2023-04-24T03:57:21;95051.38;;;10.21;100.00
29239;BME280;16267;48.194;11.546;2023-04-24T03:59:46;95047.94;;;10.20;100.00
29239;BME280;16267;48.194;11.546;2023-04-24T04:02:12;95047.84;;;10.24;100.00
29239;BME280;16267;48.194;11.546;2023-04-24T04:04:38;95044.69;;;10.29;100.00
29239;BME280;16267;48.194;11.546;2023-04-24T04:07:04;95046.88;;;10.34;100.00
29239;BME280;16267;48.194;11.546;2023-04-24T04:09:30;95035.31;;;10.37;100.00
29239;BME280;16267;48.194;11.546;2023-04-24T04:11:56;95036.91;;;10.35;100.00
29239;BME280;16267;48.194;11.546;2023-04-24T04:14:22;95034.88;;;10.39;100.00
29239;BME280;16267;48.194;11.546;2023-04-24T04:17:07;95037.97;;;10.21;100.00
29239;BME280;16267;48.194;11.546;2023-04-24T04:19:33;95038.22;;;10.26;100.00
29239;BME280;16267;48.194;11.546;2023-04-24T04:21:58;95042.50;;;10.24;100.00
29239;BME280;16267;48.194;11.546;2023-04-24T04:24:24;95046.94;;;10.31;100.00
29239;BME280;16267;48.194;11.546;2023-04-24T04:26:52;95051.47;;;10.17;100.00
29239;BME280;16267;48.194;11.546;2023-04-24T04:29:22;95048.00;;;10.17;100.00
29239;BME280;16267;48.194;11.546;2023-04-24T04:31:48;95047.25;;;10.16;100.00
29239;BME280;16267;48.194;11.546;2023-04-24T04:34:14;95053.06;;;10.15;100.00
29239;BME280;16267;48.194;11.546;2023-04-24T04:36:41;95054.41;;;10.07;100.00
29239;BME280;16267;48.194;11.546;2023-04-24T04:39:07;95058.50;;;10.11;100.00
29239;BME280;16267;48.194;11.546;2023-04-24T04:41:33;95061.00;;;10.18;100.00
29239;BME280;16267;48.194;11.546;2023-04-24T04:44:01;95060.59;;;10.20;100.00
29239;BME280;16267;48.194;11.546;2023-04-24T04:46:33;95059.81;;;10.03;100.00
29239;BME280;16267;48.194;11.546;2023-04-24T04:49:00;95067.06;;;10.06;100.00
29239;BME280;16267;48.194;11.546;2023-04-24T04:51:27;95062.09;;;10.04;100.00
29239;BME280;16267;48.194;11.546;2023-04-24T04:53:53;95072.81;;;10.04;100.00
29239;BME280;16267;48.194;11.546;2023-04-24T04:56:19;95078.78;;;10.12;100.00
29239;BME280;16267;48.194;11.546;2023-04-24T04:58:45;95073.25;;;10.19;100.00
29239;BME280;16267;48.194;11.546;2023-04-24T05:01:11;95077.75;;;10.22;100.00
29239;BME280;16267;48.194;11.546;2023-04-24T05:03:36;95080.78;;;10.24;100.00
29239;BME280;16267;48.194;11.546;2023-04-24T05:06:02;95076.34;;;10.18;100.00
29239;BME280;16267;48.194;11.546;2023-04-24T05:08:28;95087.69;;;10.25;100.00
29239;BME280;16267;48.194;11.546;2023-04-24T05:10:54;95086.88;;;10.29;100.00
29239;BME280;16267;48.194;11.546;2023-04-24T05:13:21;95088.44;;;10.26;100.00
29239;BME280;16267;48.194;11.546;2023-04-24T05:15:46;95087.94;;;10.31;100.00
29239;BME280;16267;48.194;11.546;2023-04-24T05:18:12;95087.59;;;10.29;100.00
29239;BME280;16267;48.194;11.546;2023-04-24T05:20:38;95091.44;;;10.28;100.00
29239;BME280;16267;48.194;11.546;2023-04-24T05:23:04;95096.00;;;10.31;100.00
29239;BME280;16267;48.194;11.546;2023-04-24T05:25:30;95091.84;;;10.26;100.00
29239;BME280;16267;48.194;11.546;2023-04-24T05:28:01;95093.59;;;10.17;100.00
29239;BME280;16267;48.194;11.546;2023-04-24T05:30:27;95094.28;;;10.21;100.00
29239;BME280;16267;48.194;11.546;2023-04-24T05:32:53;95093.03;;;10.09;100.00
29239;BME280;16267;48.194;11.546;2023-04-24T05:35:19;95102.41;;;10.17;100.00
29239;BME280;16267;48.194;11.546;2023-04-24T05:37:45;95098.81;;;10.24;100.00
29239;BME280;16267;48.194;11.546;2023-04-24T05:40:11;95094.69;;;10.19;100.00
29239;BME280;16267;48.194;11.546;2023-04-24T05:42:37;95096.81;;;10.28;100.00
29239;BME280;16267;48.194;11.546;2023-04-24T05:45:04;95097.00;;;10.37;100.00
29239;BME280;16267;48.194;11.546;2023-04-24T05:47:30;95096.06;;;10.44;100.00
29239;BME280;16267;48.194;11.546;2023-04-24T05:49:55;95094.06;;;10.48;100.00
29239;BME280;16267;48.194;11.546;2023-04-24T05:52:21;95099.44;;;10.48;97.91
29239;BME280;16267;48.194;11.546;2023-04-24T05:54:47;95099.69;;;10.37;98.22
29239;BME280;16267;48.194;11.546;2023-04-24T05:57:13;95100.53;;;10.34;98.41
29239;BME280;16267;48.194;11.546;2023-04-24T05:59:40;95103.94;;;10.35;98.85
29239;BME280;16267;48.194;11.546;2023-04-24T06:02:06;95097.34;;;10.39;99.34
29239;BME280;16267;48.194;11.546;2023-04-24T06:04:32;95111.16;;;10.38;99.38
29239;BME280;16267;48.194;11.546;2023-04-24T06:06:59;95113.59;;;10.48;99.77
29239;BME280;16267;48.194;11.546;2023-04-24T06:09:25;95116.09;;;10.56;99.33
29239;BME280;16267;48.194;11.546;2023-04-24T06:11:51;95107.53;;;10.44;97.57
29239;BME280;16267;48.194;11.546;2023-04-24T06:14:20;95109.41;;;10.47;98.71
29239;BME280;16267;48.194;11.546;2023-04-24T06:16:46;95108.47;;;10.54;99.04
29239;BME280;16267;48.194;11.546;2023-04-24T06:19:12;95107.38;;;10.52;97.67
29239;BME280;16267;48.194;11.546;2023-04-24T06:21:38;95109.22;;;10.38;96.47
29239;BME280;16267;48.194;11.546;2023-04-24T06:24:14;95115.44;;;10.52;96.90
29239;BME280;16267;48.194;11.546;2023-04-24T06:26:39;95118.69;;;10.59;97.60
29239;BME280;16267;48.194;11.546;2023-04-24T06:29:06;95107.78;;;10.66;97.70
29239;BME280;16267;48.194;11.546;2023-04-24T06:31:32;95110.41;;;10.70;96.82
29239;BME280;16267;48.194;11.546;2023-04-24T06:34:03;95124.97;;;10.69;96.54
29239;BME280;16267;48.194;11.546;2023-04-24T06:36:29;95125.97;;;10.75;95.90
29239;BME280;16267;48.194;11.546;2023-04-24T06:38:56;95116.41;;;10.74;95.74
29239;BME280;16267;48.194;11.546;2023-04-24T06:41:22;95121.19;;;10.83;96.47
29239;BME280;16267;48.194;11.546;2023-04-24T06:43:48;95120.31;;;10.86;94.56
29239;BME280;16267;48.194;11.546;2023-04-24T06:46:14;95127.72;;;10.98;96.67
29239;BME280;16267;48.194;11.546;2023-04-24T06:48:40;95126.34;;;11.06;96.86
29239;BME280;16267;48.194;11.546;2023-04-24T06:51:05;95128.41;;;11.15;97.48
29239;BME280;16267;48.194;11.546;2023-04-24T06:53:31;95126.81;;;11.18;94.58
29239;BME280;16267;48.194;11.546;2023-04-24T06:55:57;95136.88;;;11.13;93.90
29239;BME280;16267;48.194;11.546;2023-04-24T06:58:24;95131.09;;;11.15;92.17
29239;BME280;16267;48.194;11.546;2023-04-24T07:00:50;95132.69;;;11.12;91.49
29239;BME280;16267;48.194;11.546;2023-04-24T07:03:18;95139.50;;;11.17;92.21
29239;BME280;16267;48.194;11.546;2023-04-24T07:05:43;95128.81;;;11.13;90.12
29239;BME280;16267;48.194;11.546;2023-04-24T07:08:12;95130.72;;;11.29;92.12
29239;BME280;16267;48.194;11.546;2023-04-24T07:10:39;95129.53;;;11.30;87.95
29239;BME280;16267;48.194;11.546;2023-04-24T07:13:04;95134.44;;;11.48;89.97
29239;BME280;16267;48.194;11.546;2023-04-24T07:15:32;95128.25;;;11.64;91.89
29239;BME280;16267;48.194;11.546;2023-04-24T07:17:58;95128.75;;;11.59;89.12
29239;BME280;16267;48.194;11.546;2023-04-24T07:20:23;95132.31;;;11.69;89.24
29239;BME280;16267;48.194;11.546;2023-04-24T07:22:49;95132.53;;;11.74;89.21
29239;BME280;16267;48.194;11.546;2023-04-24T07:25:17;95137.06;;;11.65;88.32
29239;BME280;16267;48.194;11.546;2023-04-24T07:27:43;95137.41;;;11.79;88.92
29239;BME280;16267;48.194;11.546;2023-04-24T07:30:09;95142.59;;;11.87;87.84
29239;BME280;16267;48.194;11.546;2023-04-24T07:32:35;95150.31;;;11.84;86.11
29239;BME280;16267;48.194;11.546;2023-04-24T07:35:00;95147.22;;;11.86;85.74
29239;BME280;16267;48.194;11.546;2023-04-24T07:37:26;95146.25;;;11.93;85.57
29239;BME280;16267;48.194;11.546;2023-04-24T07:39:53;95155.56;;;11.75;83.01
29239;BME280;16267;48.194;11.546;2023-04-24T07:42:19;95156.00;;;11.74;83.56
29239;BME280;16267;48.194;11.546;2023-04-24T07:44:44;95154.78;;;11.75;84.28
29239;BME280;16267;48.194;11.546;2023-04-24T07:47:12;95150.84;;;11.79;83.70
29239;BME280;16267;48.194;11.546;2023-04-24T07:49:38;95164.28;;;11.79;84.44
29239;BME280;16267;48.194;11.546;2023-04-24T07:52:03;95162.22;;;11.71;82.96
29239;BME280;16267;48.194;11.546;2023-04-24T07:54:29;95162.97;;;11.71;82.90
29239;BME280;16267;48.194;11.546;2023-04-24T07:56:55;95159.19;;;11.69;84.46
29239;BME280;16267;48.194;11.546;2023-04-24T07:59:21;95173.31;;;11.73;83.86
29239;BME280;16267;48.194;11.546;2023-04-24T08:01:47;95170.00;;;11.81;82.97
29239;BME280;16267;48.194;11.546;2023-04-24T08:04:12;95169.44;;;11.74;82.80
29239;BME280;16267;48.194;11.546;2023-04-24T08:06:38;95167.06;;;11.76;83.04
29239;BME280;16267;48.194;11.546;2023-04-24T08:09:04;95172.41;;;11.63;81.68
29239;BME280;16267;48.194;11.546;2023-04-24T08:11:30;95176.75;;;11.73;82.63
29239;BME280;16267;48.194;11.546;2023-04-24T08:13:56;95175.03;;;11.79;83.57
29239;BME280;16267;48.194;11.546;2023-04-24T08:16:22;95169.88;;;11.72;80.54
29239;BME280;16267;48.194;11.546;2023-04-24T08:18:49;95172.69;;;11.81;82.67
29239;BME280;16267;48.194;11.546;2023-04-24T08:21:16;95185.63;;;11.87;83.29
29239;BME280;16267;48.194;11.546;2023-04-24T08:23:45;95183.69;;;11.87;81.98
29239;BME280;16267;48.194;11.546;2023-04-24T08:26:12;95182.69;;;11.81;82.65
29239;BME280;16267;48.194;11.546;2023-04-24T08:28:38;95184.94;;;11.82;83.50
29239;BME280;16267;48.194;11.546;2023-04-24T08:31:05;95190.94;;;11.74;82.62
29239;BME280;16267;48.194;11.546;2023-04-24T08:33:31;95195.50;;;11.48;83.01
29239;BME280;16267;48.194;11.546;2023-04-24T08:36:04;95199.50;;;11.56;84.19
29239;BME280;16267;48.194;11.546;2023-04-24T08:38:30;95211.16;;;11.49;85.89
29239;BME280;16267;48.194;11.546;2023-04-24T08:41:01;95218.31;;;11.56;86.22
29239;BME280;16267;48.194;11.546;2023-04-24T08:43:27;95214.59;;;11.50;82.40
29239;BME280;16267;48.194;11.546;2023-04-24T08:45:55;95221.22;;;11.61;83.20
29239;BME280;16267;48.194;11.546;2023-04-24T08:48:22;95217.75;;;11.61;80.64
29239;BME280;16267;48.194;11.546;2023-04-24T08:50:51;95218.31;;;11.56;75.49
29239;BME280;16267;48.194;11.546;2023-04-24T08:53:18;95222.91;;;11.55;73.77
29239;BME280;16267;48.194;11.546;2023-04-24T08:55:47;95222.50;;;11.57;73.90
29239;BME280;16267;48.194;11.546;2023-04-24T08:58:15;95224.19;;;11.51;70.34
29239;BME280;16267;48.194;11.546;2023-04-24T09:00:41;95223.34;;;11.54;69.97
29239;BME280;16267;48.194;11.546;2023-04-24T09:03:14;95243.78;;;11.35;67.41
29239;BME280;16267;48.194;11.546;2023-04-24T09:05:43;95239.75;;;11.27;68.77
29239;BME280;16267;48.194;11.546;2023-04-24T09:08:13;95243.19;;;11.27;67.25
29239;BME280;16267;48.194;11.546;2023-04-24T09:10:40;95248.31;;;11.38;68.69
29239;BME280;16267;48.194;11.546;2023-04-24T09:13:06;95248.56;;;11.44;70.19
29239;BME280;16267;48.194;11.546;2023-04-24T09:15:35;95238.41;;;11.35;69.05
29239;BME280;16267;48.194;11.546;2023-04-24T09:18:01;95230.72;;;11.50;69.89
29239;BME280;16267;48.194;11.546;2023-04-24T09:20:27;95233.25;;;11.57;70.52
29239;BME280;16267;48.194;11.546;2023-04-24T09:22:59;95231.97;;;11.61;70.61
29239;BME280;16267;48.194;11.546;2023-04-24T09:25:33;95229.28;;;11.61;70.92
29239;BME280;16267;48.194;11.546;2023-04-24T09:28:04;95237.38;;;11.74;70.73
29239;BME280;16267;48.194;11.546;2023-04-24T09:30:31;95234.94;;;11.80;71.43
29239;BME280;16267;48.194;11.546;2023-04-24T09:33:13;95231.69;;;11.72;68.56
29239;BME280;16267;48.194;11.546;2023-04-24T09:35:42;95238.56;;;11.73;68.04
29239;BME280;16267;48.194;11.546;2023-04-24T09:38:08;95241.38;;;11.82;69.30
29239;BME280;16267;48.194;11.546;2023-04-24T09:40:35;95239.84;;;11.98;68.69
29239;BME280;16267;48.194;11.546;2023-04-24T09:43:02;95239.97;;;12.07;68.01
29239;BME280;16267;48.194;11.546;2023-04-24T09:45:38;95235.38;;;12.20;68.81
29239;BME280;16267;48.194;11.546;2023-04-24T09:48:09;95234.19;;;12.21;65.70
29239;BME280;16267;48.194;11.546;2023-04-24T09:50:35;95237.44;;;12.29;64.48
29239;BME280;16267;48.194;11.546;2023-04-24T09:53:06;95239.47;;;12.38;64.04
29239;BME280;16267;48.194;11.546;2023-04-24T09:55:44;95233.38;;;12.50;65.48
29239;BME280;16267;48.194;11.546;2023-04-24T09:58:10;95232.59;;;12.49;64.04
29239;BME280;16267;48.194;11.546;2023-04-24T10:00:36;95241.75;;;12.52;63.11
29239;BME280;16267;48.194;11.546;2023-04-24T10:03:04;95228.72;;;12.50;62.96
29239;BME280;16267;48.194;11.546;2023-04-24T10:05:35;95226.47;;;12.62;65.07
29239;BME280;16267;48.194;11.546;2023-04-24T10:08:10;95222.03;;;12.55;62.52
29239;BME280;16267;48.194;11.546;2023-04-24T10:10:42;95221.41;;;12.64;64.58
29239;BME280;16267;48.194;11.546;2023-04-24T10:13:10;95229.59;;;12.86;65.96
29239;BME280;16267;48.194;11.546;2023-04-24T10:15:38;95232.91;;;12.77;64.27
29239;BME280;16267;48.194;11.546;2023-04-24T10:18:08;95237.00;;;12.94;64.73
29239;BME280;16267;48.194;11.546;2023-04-24T10:20:36;95232.78;;;13.06;63.98
29239;BME280;16267;48.194;11.546;2023-04-24T10:23:05;95223.81;;;13.22;64.90
29239;BME280;16267;48.194;11.546;2023-04-24T10:25:33;95223.34;;;13.24;64.69
29239;BME280;16267;48.194;11.546;2023-04-24T10:28:01;95221.97;;;13.32;63.03
29239;BME280;16267;48.194;11.546;2023-04-24T10:30:30;95222.34;;;13.43;63.85
29239;BME280;16267;48.194;11.546;2023-04-24T10:32:56;95223.88;;;13.44;62.90
29239;BME280;16267;48.194;11.546;2023-04-24T10:35:22;95216.38;;;13.61;64.57
29239;BME280;16267;48.194;11.546;2023-04-24T10:37:58;95214.16;;;13.69;63.71
29239;BME280;16267;48.194;11.546;2023-04-24T10:40:34;95211.72;;;13.61;61.48
29239;BME280;16267;48.194;11.546;2023-04-24T10:43:05;95218.81;;;13.68;63.59
29239;BME280;16267;48.194;11.546;2023-04-24T10:45:34;95220.56;;;13.62;63.09
29239;BME280;16267;48.194;11.546;2023-04-24T10:48:04;95241.06;;;13.59;63.93
29239;BME280;16267;48.194;11.546;2023-04-24T10:50:48;95272.41;;;13.44;66.55
29239;BME280;16267;48.194;11.546;2023-04-24T10:53:28;95295.47;;;13.20;72.01
29239;BME280;16267;48.194;11.546;2023-04-24T10:56:06;95288.69;;;13.02;73.96
29239;BME280;16267;48.194;11.546;2023-04-24T10:58:43;95294.03;;;12.25;76.14
29239;BME280;16267;48.194;11.546;2023-04-24T11:01:31;95274.31;;;12.03;76.58
29239;BME280;16267;48.194;11.546;2023-04-24T11:04:02;95274.19;;;12.07;76.87
29239;BME280;16267;48.194;11.546;2023-04-24T11:06:35;95262.69;;;12.19;78.48
29239;BME280;16267;48.194;11.546;2023-04-24T11:09:07;95263.22;;;11.84;80.59
29239;BME280;16267;48.194;11.546;2023-04-24T11:11:37;95256.41;;;11.96;80.05
29239;BME280;16267;48.194;11.546;2023-04-24T11:14:05;95248.69;;;11.98;78.59
29239;BME280;16267;48.194;11.546;2023-04-24T11:16:55;95249.03;;;12.13;83.76
29239;BME280;16267;48.194;11.546;2023-04-24T11:19:25;95257.84;;;12.14;85.36
29239;BME280;16267;48.194;11.546;2023-04-24T11:22:14;95258.44;;;12.34;83.23
29239;BME280;16267;48.194;11.546;2023-04-24T11:27:17;95264.13;;;12.49;84.20
29239;BME280;16267;48.194;11.546;2023-04-24T11:29:51;95264.69;;;12.57;82.71
29239;BME280;16267;48.194;11.546;2023-04-24T11:35:08;95264.38;;;12.55;79.28
29239;BME280;16267;48.194;11.546;2023-04-24T11:37:37;95266.00;;;12.78;80.55
29239;BME280;16267;48.194;11.546;2023-04-24T11:40:06;95260.72;;;12.87;76.07
29239;BME280;16267;48.194;11.546;2023-04-24T11:42:37;95262.22;;;12.88;73.82
29239;BME280;16267;48.194;11.546;2023-04-24T11:45:12;95264.38;;;12.93;71.57
29239;BME280;16267;48.194;11.546;2023-04-24T11:47:39;95262.09;;;13.04;72.54
29239;BME280;16267;48.194;11.546;2023-04-24T11:50:12;95264.44;;;13.15;72.24
29239;BME280;16267;48.194;11.546;2023-04-24T11:52:40;95267.16;;;13.28;70.20
29239;BME280;16267;48.194;11.546;2023-04-24T11:57:39;95253.69;;;13.28;67.99
29239;BME280;16267;48.194;11.546;2023-04-24T12:00:19;95251.69;;;13.41;68.44
29239;BME280;16267;48.194;11.546;2023-04-24T12:02:46;95244.00;;;13.52;70.89
29239;BME280;16267;48.194;11.546;2023-04-24T12:05:23;95249.97;;;13.22;65.56
29239;BME280;16267;48.194;11.546;2023-04-24T12:07:49;95246.00;;;13.39;67.97
29239;BME280;16267;48.194;11.546;2023-04-24T12:10:21;95248.44;;;13.46;66.21
29239;BME280;16267;48.194;11.546;2023-04-24T12:12:47;95243.41;;;13.35;65.96
29239;BME280;16267;48.194;11.546;2023-04-24T12:15:17;95234.47;;;13.60;68.51
29239;BME280;16267;48.194;11.546;2023-04-24T12:17:44;95230.22;;;13.72;67.00
29239;BME280;16267;48.194;11.546;2023-04-24T12:20:11;95232.09;;;13.84;66.70
29239;BME280;16267;48.194;11.546;2023-04-24T12:22:54;95225.91;;;13.97;64.76
29239;BME280;16267;48.194;11.546;2023-04-24T12:25:26;95226.84;;;13.81;61.79
29239;BME280;16267;48.194;11.546;2023-04-24T12:28:11;95227.09;;;13.96;62.49
29239;BME280;16267;48.194;11.546;2023-04-24T12:30:47;95224.06;;;13.94;61.17
29239;BME280;16267;48.194;11.546;2023-04-24T12:33:18;95226.88;;;14.12;62.85
29239;BME280;16267;48.194;11.546;2023-04-24T12:35:45;95223.78;;;14.23;60.75
29239;BME280;16267;48.194;11.546;2023-04-24T12:38:13;95217.81;;;14.28;58.32
29239;BME280;16267;48.194;11.546;2023-04-24T12:40:41;95217.75;;;14.19;54.64
29239;BME280;16267;48.194;11.546;2023-04-24T12:43:19;95216.31;;;14.27;55.54
29239;BME280;16267;48.194;11.546;2023-04-24T12:45:47;95219.50;;;14.35;55.03
29239;BME280;16267;48.194;11.546;2023-04-24T12:48:12;95215.16;;;14.37;55.60
29239;BME280;16267;48.194;11.546;2023-04-24T12:50:39;95225.81;;;14.41;54.58
29239;BME280;16267;48.194;11.546;2023-04-24T12:53:07;95230.06;;;14.51;55.41
29239;BME280;16267;48.194;11.546;2023-04-24T12:55:34;95222.69;;;14.42;52.96
29239;BME280;16267;48.194;11.546;2023-04-24T12:58:00;95234.94;;;14.34;53.22